Search for airport 
image banner adimage banner adimage banner ad
image banner ad

85CA - Redwood Coast Medical Services

Located in Gualala, United States

ICAO - 85CA, IATA -

Data provided by Airmate  

General information

Coordinates: N38°46'15" W123°31'46"
Elevation is 172 feet MSL.
Magnetic variation is 16° East
View others Airports in California

Operational data

Special qualification required
Current time UTC:
Current local time:
Weather at : KUKI - Ukiah Muni ( 49 km )
METAR: KUKI 270456Z AUTO 18006KT 10SM CLR 21/08 A2993 RMK AO2 SLP126 T02110078
TAF: KUKI 262347Z 2700/2724 16012G22KT P6SM SCT250 FM270500 VRB05KT P6SM BKN250 FM271300 15003KT P6SM OVC250
View NOTAMs / SUP AIP / TFR affecting this airport [VIEW]
Communications frequencies: [VIEW]

Runways:

Airport contact information

Address: Gualala United States

Satellite view of 85CA